Time;durP1;ratioP1;P1;durP2;ratioP2;P2;SDS_P1;SDS_P2;PMS_P1;PMS_P2;Temp;Humidity;BMP_temperature;BMP_pressure;BME280_temperature;BME280_humidity;BME280_pressure;Samples;Min_cycle;Max_cycle;Signal;HPM_P1;HPM_P2
2024/03/11 00:01:49;;;;;;;6.00;4.75;;;;;;;;;;5016693;28;20472;-57
2024/03/11 00:04:15;;;;;;;4.75;3.92;;;;;;;;;;5020997;28;20037;-57
2024/03/11 00:06:40;;;;;;;5.75;4.35;;;;;;;;;;5025951;28;20037;-57
2024/03/11 00:09:15;;;;;;;5.00;4.00;;;;;;;;;;5016773;28;20095;-58
2024/03/11 00:11:48;;;;;;;6.07;4.38;;;;;;;;;;5020629;28;20425;-57
2024/03/11 00:14:14;;;;;;;4.85;3.95;;;;;;;;;;5024149;28;20370;-57
2024/03/11 00:16:40;;;;;;;6.72;4.43;;;;;;;;;;5025604;28;20068;-57
2024/03/11 00:19:05;;;;;;;5.30;4.18;;;;;;;;;;5024647;28;20068;-58
2024/03/11 00:21:30;;;;;;;5.38;4.30;;;;;;;;;;5025081;28;20069;-57
2024/03/11 00:23:58;;;;;;;5.80;4.10;;;;;;;;;;5024642;28;20033;-57
2024/03/11 00:26:24;;;;;;;5.20;4.00;;;;;;;;;;5025631;28;20034;-57
2024/03/11 00:28:50;;;;;;;5.05;3.80;;;;;;;;;;5023921;28;20072;-57
2024/03/11 00:31:15;;;;;;;6.07;4.43;;;;;;;;;;5022673;28;20037;-57
2024/03/11 00:33:40;;;;;;;5.50;3.95;;;;;;;;;;5015113;28;20397;-57
2024/03/11 00:36:06;;;;;;;5.28;4.07;;;;;;;;;;5025142;28;20489;-57
2024/03/11 00:38:32;;;;;;;5.35;4.05;;;;;;;;;;5022843;28;20505;-57
2024/03/11 00:40:58;;;;;;;5.53;4.10;;;;;;;;;;5023383;28;20144;-57
2024/03/11 00:43:24;;;;;;;5.50;4.30;;;;;;;;;;5024430;28;20132;-57
2024/03/11 00:45:49;;;;;;;6.40;4.57;;;;;;;;;;5024733;28;20033;-57
2024/03/11 00:48:14;;;;;;;5.45;3.97;;;;;;;;;;5024676;28;20030;-57
2024/03/11 00:50:40;;;;;;;4.65;4.10;;;;;;;;;;5025008;28;20091;-57
2024/03/11 00:53:06;;;;;;;5.00;4.25;;;;;;;;;;5022897;28;20432;-57
2024/03/11 00:55:33;;;;;;;5.30;4.20;;;;;;;;;;5018378;28;20437;-57
2024/03/11 00:57:59;;;;;;;4.50;3.70;;;;;;;;;;5024518;28;20033;-57
2024/03/11 01:00:26;;;;;;;5.43;4.13;;;;;;;;;;5024953;28;20486;-57
2024/03/11 01:02:52;;;;;;;6.03;4.45;;;;;;;;;;5021242;28;20100;-57
2024/03/11 01:05:17;;;;;;;5.82;4.57;;;;;;;;;;5024480;28;20060;-57
2024/03/11 01:07:45;;;;;;;4.78;3.90;;;;;;;;;;5023160;28;20034;-57
2024/03/11 01:10:11;;;;;;;4.85;4.18;;;;;;;;;;5018070;28;20187;-59
2024/03/11 01:12:37;;;;;;;5.47;3.92;;;;;;;;;;5023264;28;20042;-57
2024/03/11 01:15:02;;;;;;;5.65;4.03;;;;;;;;;;5024392;28;20509;-57
2024/03/11 01:17:27;;;;;;;4.93;4.10;;;;;;;;;;5024572;28;20124;-57
2024/03/11 01:19:53;;;;;;;5.78;4.35;;;;;;;;;;5023529;28;20092;-57
2024/03/11 01:22:18;;;;;;;6.03;4.38;;;;;;;;;;5022559;28;20402;-58
2024/03/11 01:24:43;;;;;;;5.28;4.50;;;;;;;;;;5024281;28;20041;-57
2024/03/11 01:27:14;;;;;;;6.10;4.50;;;;;;;;;;5024003;28;20033;-57
2024/03/11 01:29:39;;;;;;;5.07;4.13;;;;;;;;;;5024130;28;20911;-57
2024/03/11 01:32:06;;;;;;;4.78;4.00;;;;;;;;;;5017221;28;20100;-56
2024/03/11 01:34:33;;;;;;;6.22;4.63;;;;;;;;;;5022027;28;20038;-57
2024/03/11 01:37:00;;;;;;;5.60;4.25;;;;;;;;;;5025380;28;20120;-57
2024/03/11 01:39:26;;;;;;;5.03;4.05;;;;;;;;;;5028086;28;20079;-57
2024/03/11 01:41:55;;;;;;;5.10;4.40;;;;;;;;;;5026523;28;20037;-57
2024/03/11 01:44:20;;;;;;;5.95;4.60;;;;;;;;;;5027497;28;20048;-57
2024/03/11 01:46:46;;;;;;;5.80;4.15;;;;;;;;;;5025899;28;20049;-57
2024/03/11 01:49:12;;;;;;;5.82;4.40;;;;;;;;;;5012595;28;20024;-56
2024/03/11 01:51:38;;;;;;;5.05;3.97;;;;;;;;;;5027945;28;20018;-57
2024/03/11 01:54:03;;;;;;;5.43;4.30;;;;;;;;;;5026829;28;20026;-57
2024/03/11 01:56:28;;;;;;;4.47;3.97;;;;;;;;;;5026350;28;20025;-57
2024/03/11 01:58:55;;;;;;;5.47;4.13;;;;;;;;;;5027870;28;20033;-56
2024/03/11 02:01:20;;;;;;;5.78;4.15;;;;;;;;;;5026619;28;21018;-57
2024/03/11 02:03:46;;;;;;;5.25;4.18;;;;;;;;;;5020586;28;20040;-57
2024/03/11 02:06:12;;;;;;;5.28;4.20;;;;;;;;;;5026832;28;20040;-57
2024/03/11 02:08:37;;;;;;;5.47;4.55;;;;;;;;;;5020887;28;20029;-57
2024/03/11 02:11:03;;;;;;;5.03;4.03;;;;;;;;;;5025808;28;20064;-57
2024/03/11 02:13:30;;;;;;;5.18;4.68;;;;;;;;;;5024635;28;20040;-57
2024/03/11 02:15:55;;;;;;;5.65;4.20;;;;;;;;;;5025862;28;20102;-57
2024/03/11 02:18:20;;;;;;;6.53;4.63;;;;;;;;;;5025598;28;20037;-57
2024/03/11 02:20:47;;;;;;;5.97;4.57;;;;;;;;;;5019640;28;20124;-57
2024/03/11 02:23:13;;;;;;;5.13;4.38;;;;;;;;;;5025326;28;20029;-60
2024/03/11 02:25:39;;;;;;;5.57;4.70;;;;;;;;;;5025692;28;20553;-57
2024/03/11 02:28:05;;;;;;;5.20;4.20;;;;;;;;;;5026541;28;20022;-57
2024/03/11 02:30:30;;;;;;;5.80;4.47;;;;;;;;;;5025125;28;20394;-57
2024/03/11 02:32:56;;;;;;;5.50;4.63;;;;;;;;;;5021667;28;20045;-56
2024/03/11 02:35:21;;;;;;;5.30;4.28;;;;;;;;;;5025487;28;20034;-56
2024/03/11 02:37:46;;;;;;;4.93;4.28;;;;;;;;;;5026136;28;20450;-56
2024/03/11 02:40:13;;;;;;;5.20;4.43;;;;;;;;;;5025258;28;20542;-57
2024/03/11 02:42:39;;;;;;;4.95;4.10;;;;;;;;;;5023588;28;20038;-57
2024/03/11 02:45:05;;;;;;;5.75;3.88;;;;;;;;;;5025394;28;20041;-57
2024/03/11 02:47:31;;;;;;;5.10;4.07;;;;;;;;;;5025339;28;20038;-57
2024/03/11 02:49:57;;;;;;;5.43;4.43;;;;;;;;;;5022356;28;20096;-57
2024/03/11 02:52:22;;;;;;;5.15;4.30;;;;;;;;;;5024815;28;20751;-57
2024/03/11 02:54:53;;;;;;;5.30;4.35;;;;;;;;;;5025668;28;20034;-56
2024/03/11 02:57:19;;;;;;;5.20;4.13;;;;;;;;;;5024646;28;20158;-57
2024/03/11 02:59:44;;;;;;;5.88;4.53;;;;;;;;;;5024116;28;20099;-57
2024/03/11 03:02:10;;;;;;;6.32;4.93;;;;;;;;;;5019431;28;20188;-57
2024/03/11 03:04:35;;;;;;;5.47;4.45;;;;;;;;;;5024585;28;20041;-57
2024/03/11 03:07:00;;;;;;;5.97;4.45;;;;;;;;;;5024346;28;20121;-57
2024/03/11 03:09:26;;;;;;;5.97;4.30;;;;;;;;;;5024660;28;20583;-57
2024/03/11 03:11:51;;;;;;;5.30;4.10;;;;;;;;;;5026080;28;20108;-57
2024/03/11 03:14:17;;;;;;;5.35;4.45;;;;;;;;;;5024132;28;20038;-56
2024/03/11 03:16:42;;;;;;;4.97;4.20;;;;;;;;;;5024210;28;20083;-56
2024/03/11 03:19:07;;;;;;;5.00;4.25;;;;;;;;;;5025362;28;20029;-56
2024/03/11 03:21:33;;;;;;;5.05;4.13;;;;;;;;;;5024806;28;20501;-57
2024/03/11 03:23:58;;;;;;;5.53;3.90;;;;;;;;;;5023871;28;20069;-56
2024/03/11 03:26:24;;;;;;;5.40;4.50;;;;;;;;;;5025121;28;20139;-56
2024/03/11 03:28:49;;;;;;;5.05;4.25;;;;;;;;;;5024511;28;20057;-57
2024/03/11 03:31:14;;;;;;;5.25;4.18;;;;;;;;;;5018967;28;20508;-57
2024/03/11 03:33:40;;;;;;;4.93;4.18;;;;;;;;;;5024328;28;20041;-57
2024/03/11 03:36:08;;;;;;;5.50;4.70;;;;;;;;;;5018876;28;20032;-56
2024/03/11 03:38:34;;;;;;;5.57;4.45;;;;;;;;;;5020428;28;20041;-57
2024/03/11 03:40:59;;;;;;;5.63;4.47;;;;;;;;;;5023343;28;20354;-57
2024/03/11 03:43:24;;;;;;;6.38;4.50;;;;;;;;;;5023732;28;20076;-57
2024/03/11 03:45:51;;;;;;;5.90;4.57;;;;;;;;;;5024623;28;20124;-56
2024/03/11 03:48:16;;;;;;;6.38;4.57;;;;;;;;;;5024185;28;20092;-57
2024/03/11 03:50:42;;;;;;;4.68;3.95;;;;;;;;;;5019191;28;20054;-56
2024/03/11 03:53:07;;;;;;;4.80;3.97;;;;;;;;;;5017484;28;20042;-57
2024/03/11 03:55:33;;;;;;;6.50;4.88;;;;;;;;;;5011802;28;20466;-72
2024/03/11 03:57:58;;;;;;;5.45;4.28;;;;;;;;;;5010903;28;20576;-58
2024/03/11 04:00:23;;;;;;;5.35;4.18;;;;;;;;;;5009671;28;20144;-58
2024/03/11 04:02:49;;;;;;;5.50;4.22;;;;;;;;;;5009901;28;20034;-65
2024/03/11 04:05:15;;;;;;;4.93;4.00;;;;;;;;;;5010823;28;20034;-58
2024/03/11 04:07:40;;;;;;;5.60;4.30;;;;;;;;;;5009731;28;20103;-57
2024/03/11 04:10:17;;;;;;;5.65;4.40;;;;;;;;;;5011703;28;20067;-58
2024/03/11 04:12:48;;;;;;;5.75;4.47;;;;;;;;;;5011715;28;20457;-58
2024/03/11 04:15:16;;;;;;;5.63;4.10;;;;;;;;;;5008304;28;20078;-60
2024/03/11 04:17:41;;;;;;;5.22;4.35;;;;;;;;;;5012551;28;20034;-60
2024/03/11 04:20:13;;;;;;;5.50;4.35;;;;;;;;;;5013670;28;20042;-58
2024/03/11 04:22:49;;;;;;;5.13;4.43;;;;;;;;;;5010194;28;20037;-66
2024/03/11 04:25:18;;;;;;;6.22;4.50;;;;;;;;;;5011902;28;20041;-71
2024/03/11 04:27:45;;;;;;;5.60;4.00;;;;;;;;;;5012082;28;20138;-59
2024/03/11 04:30:12;;;;;;;4.90;4.03;;;;;;;;;;5011063;28;20049;-61
2024/03/11 04:32:39;;;;;;;5.68;4.28;;;;;;;;;;5011549;28;20038;-64
2024/03/11 04:35:04;;;;;;;5.68;4.45;;;;;;;;;;5007783;28;20504;-60
2024/03/11 04:37:29;;;;;;;5.97;4.57;;;;;;;;;;5011774;28;20148;-60
2024/03/11 04:39:55;;;;;;;5.63;4.15;;;;;;;;;;5012457;28;20346;-58
2024/03/11 04:42:20;;;;;;;5.50;4.30;;;;;;;;;;5012063;28;20463;-66
2024/03/11 04:44:45;;;;;;;5.57;4.38;;;;;;;;;;5015603;28;20722;-57
2024/03/11 04:47:11;;;;;;;5.57;4.10;;;;;;;;;;5012852;28;20128;-57
2024/03/11 04:49:36;;;;;;;5.30;4.55;;;;;;;;;;5008570;28;20230;-57
2024/03/11 04:52:03;;;;;;;6.45;4.60;;;;;;;;;;5010942;28;20037;-57
2024/03/11 04:54:29;;;;;;;5.78;4.18;;;;;;;;;;5008343;28;20033;-57
2024/03/11 04:56:54;;;;;;;5.60;4.55;;;;;;;;;;5010075;28;20033;-57
2024/03/11 04:59:19;;;;;;;4.85;4.10;;;;;;;;;;5009847;28;20030;-64
2024/03/11 05:01:45;;;;;;;5.85;4.68;;;;;;;;;;5010996;28;20041;-59
2024/03/11 05:04:10;;;;;;;5.50;4.20;;;;;;;;;;5008935;28;20120;-63
2024/03/11 05:06:36;;;;;;;5.70;4.30;;;;;;;;;;5010187;28;20052;-64
2024/03/11 05:09:02;;;;;;;4.88;3.92;;;;;;;;;;5011275;28;20116;-58
2024/03/11 05:11:30;;;;;;;6.03;4.15;;;;;;;;;;5010478;28;20125;-58
2024/03/11 05:13:55;;;;;;;4.85;4.20;;;;;;;;;;5014734;28;20413;-58
2024/03/11 05:16:21;;;;;;;4.93;4.22;;;;;;;;;;5013802;28;20034;-66
2024/03/11 05:18:47;;;;;;;5.32;4.18;;;;;;;;;;5012951;28;20171;-58
2024/03/11 05:21:12;;;;;;;5.03;4.07;;;;;;;;;;5017877;28;20054;-60
2024/03/11 05:23:38;;;;;;;8.05;4.20;;;;;;;;;;5014978;28;20030;-59
2024/03/11 05:26:04;;;;;;;5.50;4.13;;;;;;;;;;5017523;28;20038;-60
2024/03/11 05:28:29;;;;;;;6.38;3.75;;;;;;;;;;5015135;28;20565;-59
2024/03/11 05:30:54;;;;;;;6.20;4.30;;;;;;;;;;5015087;28;20029;-59
2024/03/11 05:33:20;;;;;;;7.22;4.28;;;;;;;;;;5013198;28;20048;-60
2024/03/11 05:35:46;;;;;;;6.20;4.00;;;;;;;;;;5014333;28;20033;-58
2024/03/11 05:38:12;;;;;;;6.47;3.60;;;;;;;;;;5014019;28;20053;-58
2024/03/11 05:40:38;;;;;;;6.82;4.05;;;;;;;;;;5015515;28;20053;-55
2024/03/11 05:43:04;;;;;;;8.60;4.00;;;;;;;;;;5015893;28;20476;-60
2024/03/11 05:45:29;;;;;;;6.13;3.75;;;;;;;;;;5011076;28;20059;-58
2024/03/11 05:47:55;;;;;;;7.15;4.03;;;;;;;;;;5014161;28;20230;-58
2024/03/11 05:50:20;;;;;;;6.82;4.30;;;;;;;;;;5012243;28;20420;-58
2024/03/11 05:52:47;;;;;;;8.45;4.43;;;;;;;;;;5013281;28;20044;-58
2024/03/11 05:55:13;;;;;;;6.32;3.88;;;;;;;;;;5013042;28;20111;-59
2024/03/11 05:57:39;;;;;;;6.00;3.85;;;;;;;;;;5011943;28;20045;-58
2024/03/11 06:00:09;;;;;;;11.32;4.57;;;;;;;;;;5010251;28;20037;-58
2024/03/11 06:02:36;;;;;;;7.43;4.07;;;;;;;;;;5013452;28;20041;-58
2024/03/11 06:05:02;;;;;;;8.32;4.65;;;;;;;;;;5011978;28;20045;-58
2024/03/11 06:07:28;;;;;;;6.53;3.83;;;;;;;;;;5013014;28;20532;-59
2024/03/11 06:09:53;;;;;;;6.65;4.20;;;;;;;;;;5012312;28;20025;-59
2024/03/11 06:12:19;;;;;;;6.85;4.10;;;;;;;;;;5013686;28;20021;-59
2024/03/11 06:14:45;;;;;;;8.07;4.38;;;;;;;;;;5012421;28;20163;-59
2024/03/11 06:17:10;;;;;;;9.68;4.40;;;;;;;;;;5012541;28;20157;-59
2024/03/11 06:19:37;;;;;;;11.00;4.40;;;;;;;;;;5012780;28;20034;-59
2024/03/11 06:22:03;;;;;;;9.52;4.03;;;;;;;;;;5013245;28;20049;-59
2024/03/11 06:24:30;;;;;;;7.60;4.15;;;;;;;;;;5023822;28;20025;-59
2024/03/11 06:26:56;;;;;;;11.73;4.50;;;;;;;;;;5018417;28;20025;-64
2024/03/11 06:29:21;;;;;;;8.25;4.03;;;;;;;;;;5023232;28;20036;-59
2024/03/11 06:31:48;;;;;;;6.45;4.05;;;;;;;;;;5015639;28;20104;-61
2024/03/11 06:34:14;;;;;;;8.95;4.10;;;;;;;;;;5015006;28;20026;-64
2024/03/11 06:36:40;;;;;;;10.88;4.47;;;;;;;;;;5015839;28;20022;-57
2024/03/11 06:39:06;;;;;;;10.85;4.18;;;;;;;;;;5015181;28;20033;-61
2024/03/11 06:41:31;;;;;;;12.65;5.88;;;;;;;;;;5015170;28;20168;-57
2024/03/11 06:44:01;;;;;;;11.98;4.13;;;;;;;;;;5018353;28;20117;-58
2024/03/11 06:46:26;;;;;;;14.40;5.32;;;;;;;;;;5012882;28;20033;-58
2024/03/11 06:48:51;;;;;;;12.55;4.60;;;;;;;;;;5014416;28;20025;-62
2024/03/11 06:51:17;;;;;;;8.50;4.30;;;;;;;;;;5015211;28;20464;-62
2024/03/11 06:53:43;;;;;;;9.68;4.00;;;;;;;;;;5015157;28;20442;-57
2024/03/11 06:56:11;;;;;;;8.68;4.15;;;;;;;;;;5011837;28;20018;-57
2024/03/11 06:58:38;;;;;;;12.35;4.82;;;;;;;;;;5010197;28;20037;-56
2024/03/11 07:01:04;;;;;;;11.88;4.80;;;;;;;;;;5010065;28;20046;-61
2024/03/11 07:03:32;;;;;;;9.02;4.72;;;;;;;;;;5010237;28;20076;-57
2024/03/11 07:05:58;;;;;;;9.82;4.53;;;;;;;;;;5008794;28;20120;-58
2024/03/11 07:08:24;;;;;;;12.60;4.72;;;;;;;;;;5009006;28;20152;-57
2024/03/11 07:10:50;;;;;;;8.27;4.70;;;;;;;;;;5013599;28;20057;-57
2024/03/11 07:13:15;;;;;;;9.07;4.25;;;;;;;;;;5010999;28;20076;-57
2024/03/11 07:15:41;;;;;;;11.52;4.93;;;;;;;;;;5011526;28;20034;-63
2024/03/11 07:18:08;;;;;;;8.50;4.53;;;;;;;;;;5011293;28;20808;-60
2024/03/11 07:20:34;;;;;;;7.25;4.45;;;;;;;;;;5010138;28;20064;-66
2024/03/11 07:23:00;;;;;;;7.97;4.55;;;;;;;;;;5011030;28;20029;-56
2024/03/11 07:25:27;;;;;;;11.07;4.40;;;;;;;;;;5012536;28;20800;-57
2024/03/11 07:27:52;;;;;;;10.48;4.57;;;;;;;;;;5012438;28;20077;-56
2024/03/11 07:30:22;;;;;;;9.63;4.60;;;;;;;;;;5011685;28;20120;-56
2024/03/11 07:32:47;;;;;;;6.82;3.90;;;;;;;;;;5015503;28;20478;-57
2024/03/11 07:35:14;;;;;;;8.38;4.18;;;;;;;;;;5023585;28;20061;-57
2024/03/11 07:37:40;;;;;;;9.57;4.28;;;;;;;;;;5011920;28;20052;-57
2024/03/11 07:40:11;;;;;;;8.70;3.97;;;;;;;;;;5012797;28;20038;-57
2024/03/11 07:42:37;;;;;;;9.45;4.53;;;;;;;;;;5015931;28;20421;-56
2024/03/11 07:45:03;;;;;;;7.20;4.15;;;;;;;;;;5011940;28;20068;-56
2024/03/11 07:47:28;;;;;;;6.18;4.07;;;;;;;;;;5009015;28;20109;-56
2024/03/11 07:49:54;;;;;;;7.20;4.47;;;;;;;;;;5010963;28;20049;-56
2024/03/11 07:52:19;;;;;;;11.88;4.55;;;;;;;;;;5012177;28;20037;-56
2024/03/11 07:54:44;;;;;;;8.05;4.20;;;;;;;;;;5011722;28;20347;-57
2024/03/11 07:57:10;;;;;;;10.98;4.30;;;;;;;;;;5013582;28;20033;-57
2024/03/11 07:59:36;;;;;;;8.38;4.50;;;;;;;;;;5010255;28;20029;-56
2024/03/11 08:02:02;;;;;;;12.15;5.30;;;;;;;;;;5016922;28;20033;-57
2024/03/11 08:04:28;;;;;;;6.10;3.95;;;;;;;;;;5012699;28;20100;-56
2024/03/11 08:06:54;;;;;;;8.18;4.03;;;;;;;;;;5011927;28;20143;-56
2024/03/11 08:09:19;;;;;;;8.30;3.78;;;;;;;;;;5012217;28;22202;-56
2024/03/11 08:11:45;;;;;;;11.15;4.30;;;;;;;;;;5012713;28;20087;-56
2024/03/11 08:14:10;;;;;;;6.28;4.03;;;;;;;;;;5019834;28;20462;-56
2024/03/11 08:16:36;;;;;;;7.40;4.00;;;;;;;;;;5024029;28;20041;-55
2024/03/11 08:19:01;;;;;;;7.15;3.80;;;;;;;;;;5020992;28;20048;-55
2024/03/11 08:21:27;;;;;;;8.10;4.25;;;;;;;;;;5012600;28;20042;-55
2024/03/11 08:23:54;;;;;;;6.28;4.10;;;;;;;;;;5012167;28;20112;-55
2024/03/11 08:26:19;;;;;;;7.15;4.00;;;;;;;;;;5015457;28;20096;-55
2024/03/11 08:28:44;;;;;;;6.97;4.05;;;;;;;;;;5011634;28;20037;-56
2024/03/11 08:31:10;;;;;;;6.88;4.53;;;;;;;;;;5012481;28;20061;-55
2024/03/11 08:33:35;;;;;;;7.15;4.07;;;;;;;;;;5011461;28;20651;-56
2024/03/11 08:36:06;;;;;;;8.07;4.40;;;;;;;;;;5012840;28;20041;-56
2024/03/11 08:38:33;;;;;;;7.35;4.32;;;;;;;;;;5014288;28;20037;-56
2024/03/11 08:40:58;;;;;;;8.98;4.30;;;;;;;;;;5015000;28;20462;-56
2024/03/11 08:43:24;;;;;;;6.97;3.97;;;;;;;;;;5015327;28;20038;-56
2024/03/11 08:45:50;;;;;;;6.18;4.35;;;;;;;;;;5019063;28;20551;-56
2024/03/11 08:48:16;;;;;;;4.95;3.92;;;;;;;;;;5012343;28;20449;-55
2024/03/11 08:50:42;;;;;;;7.38;4.30;;;;;;;;;;5011810;28;20069;-55
2024/03/11 08:53:08;;;;;;;8.45;4.63;;;;;;;;;;5010282;28;20037;-56
2024/03/11 08:55:34;;;;;;;7.95;4.18;;;;;;;;;;5011759;28;20080;-56
2024/03/11 08:58:00;;;;;;;7.55;4.00;;;;;;;;;;5010927;28;20041;-55
2024/03/11 09:00:27;;;;;;;8.75;4.57;;;;;;;;;;5011893;28;20042;-56
2024/03/11 09:02:54;;;;;;;9.13;4.00;;;;;;;;;;5011508;28;20142;-55
2024/03/11 09:05:20;;;;;;;8.77;4.25;;;;;;;;;;5013848;28;20041;-57
2024/03/11 09:07:46;;;;;;;8.18;4.53;;;;;;;;;;5009878;28;20498;-56
2024/03/11 09:10:12;;;;;;;6.55;4.18;;;;;;;;;;5012565;28;20034;-56
2024/03/11 09:12:37;;;;;;;8.02;4.10;;;;;;;;;;5005372;28;20061;-56
2024/03/11 09:15:04;;;;;;;11.73;4.70;;;;;;;;;;5013141;28;20362;-56
2024/03/11 09:17:29;;;;;;;7.63;4.13;;;;;;;;;;5023661;28;20034;-56
2024/03/11 09:19:54;;;;;;;8.00;4.20;;;;;;;;;;5017526;28;20135;-56
2024/03/11 09:22:21;;;;;;;8.77;4.45;;;;;;;;;;5021474;28;20524;-56
2024/03/11 09:24:46;;;;;;;8.85;4.38;;;;;;;;;;5016822;28;20041;-55
2024/03/11 09:27:11;;;;;;;9.68;4.68;;;;;;;;;;5015777;28;20034;-56
2024/03/11 09:29:37;;;;;;;7.30;4.55;;;;;;;;;;5010943;28;20069;-56
2024/03/11 09:32:02;;;;;;;8.32;4.50;;;;;;;;;;5023452;28;20042;-56
2024/03/11 09:34:29;;;;;;;8.00;4.28;;;;;;;;;;5019929;28;20037;-56
2024/03/11 09:50:15;;;;;;;7.50;4.43;;;;;;;;;;5068357;28;20458;-64
2024/03/11 09:52:41;;;;;;;8.10;3.97;;;;;;;;;;5021397;28;20138;-70
2024/03/11 09:55:07;;;;;;;9.00;4.18;;;;;;;;;;5012048;28;20405;-59
2024/03/11 09:57:34;;;;;;;6.10;4.18;;;;;;;;;;5005055;28;20042;-59
2024/03/11 10:00:00;;;;;;;5.90;3.72;;;;;;;;;;5003549;28;20141;-54
2024/03/11 10:02:26;;;;;;;7.38;4.18;;;;;;;;;;5002821;28;20116;-54
2024/03/11 10:04:58;;;;;;;7.38;4.60;;;;;;;;;;5001961;28;20075;-54
2024/03/11 10:07:23;;;;;;;6.63;4.43;;;;;;;;;;5001518;28;20030;-54
2024/03/11 10:09:48;;;;;;;6.63;4.60;;;;;;;;;;5001393;28;20143;-55
2024/03/11 10:12:15;;;;;;;6.90;4.35;;;;;;;;;;5001222;28;20426;-54
2024/03/11 10:14:42;;;;;;;7.85;5.32;;;;;;;;;;5003242;28;20481;-56
2024/03/11 10:17:34;;;;;;;7.93;5.45;;;;;;;;;;5000948;28;20460;-53
2024/03/11 10:19:59;;;;;;;8.07;5.35;;;;;;;;;;5004976;28;20065;-54
2024/03/11 10:22:26;;;;;;;6.65;5.25;;;;;;;;;;5002857;28;20544;-55
2024/03/11 10:24:52;;;;;;;11.13;6.88;;;;;;;;;;5004479;28;20100;-53
2024/03/11 10:27:18;;;;;;;12.75;8.60;;;;;;;;;;5004761;28;20034;-54
2024/03/11 10:29:44;;;;;;;14.40;7.97;;;;;;;;;;5006785;28;20453;-54
2024/03/11 10:32:22;;;;;;;12.60;8.27;;;;;;;;;;5005825;28;20034;-55
2024/03/11 10:34:54;;;;;;;10.05;6.95;;;;;;;;;;5010442;28;20076;-55
2024/03/11 10:37:20;;;;;;;12.23;6.70;;;;;;;;;;5006643;28;20125;-55
2024/03/11 10:39:48;;;;;;;10.45;7.00;;;;;;;;;;5001704;28;20038;-54
2024/03/11 10:42:24;;;;;;;11.57;7.00;;;;;;;;;;5002154;28;20153;-54
2024/03/11 10:44:49;;;;;;;11.02;7.03;;;;;;;;;;5002579;28;20030;-55
2024/03/11 10:47:14;;;;;;;10.93;7.13;;;;;;;;;;5001227;28;20030;-55
2024/03/11 10:49:43;;;;;;;11.07;6.93;;;;;;;;;;4996527;28;20050;-55
2024/03/11 10:52:09;;;;;;;12.32;6.80;;;;;;;;;;4992691;28;20034;-55
2024/03/11 10:54:38;;;;;;;10.75;6.82;;;;;;;;;;4989932;28;20036;-54
2024/03/11 10:57:07;;;;;;;11.77;6.88;;;;;;;;;;4988223;28;20038;-54
2024/03/11 10:59:34;;;;;;;8.90;6.90;;;;;;;;;;4987627;28;20538;-55
2024/03/11 11:02:00;;;;;;;11.05;6.68;;;;;;;;;;4989045;28;20038;-55
2024/03/11 11:04:36;;;;;;;11.13;7.05;;;;;;;;;;4988718;28;20041;-55
2024/03/11 11:07:02;;;;;;;8.80;6.25;;;;;;;;;;4988314;28;20130;-55
2024/03/11 11:09:28;;;;;;;11.73;6.88;;;;;;;;;;4987514;28;20097;-55
2024/03/11 11:11:54;;;;;;;11.70;6.55;;;;;;;;;;4997470;28;20362;-54
2024/03/11 11:14:20;;;;;;;8.68;6.53;;;;;;;;;;5005522;28;20120;-55
2024/03/11 11:16:45;;;;;;;10.00;6.65;;;;;;;;;;4997173;28;20034;-54
2024/03/11 11:19:14;;;;;;;8.85;6.82;;;;;;;;;;4988338;28;20544;-53
2024/03/11 11:21:39;;;;;;;8.98;5.72;;;;;;;;;;4987393;28;20083;-54
2024/03/11 11:24:23;;;;;;;8.73;6.50;;;;;;;;;;4993001;28;20030;-54
2024/03/11 11:26:49;;;;;;;11.98;6.07;;;;;;;;;;4987626;28;20034;-54
2024/03/11 11:29:16;;;;;;;9.02;6.43;;;;;;;;;;4988225;28;20426;-54
2024/03/11 11:31:41;;;;;;;10.80;6.15;;;;;;;;;;4988980;28;21191;-54
2024/03/11 11:34:07;;;;;;;12.10;6.95;;;;;;;;;;4990068;28;20044;-54
2024/03/11 11:36:32;;;;;;;11.93;6.63;;;;;;;;;;4987453;28;20122;-54
2024/03/11 11:39:27;;;;;;;9.23;6.30;;;;;;;;;;4986857;28;20076;-55
2024/03/11 11:41:54;;;;;;;11.02;6.75;;;;;;;;;;4985716;28;20037;-59
2024/03/11 11:44:25;;;;;;;8.68;6.32;;;;;;;;;;4990055;28;20037;-55
2024/03/11 11:46:51;;;;;;;9.93;6.82;;;;;;;;;;4987133;28;20121;-54
2024/03/11 11:49:20;;;;;;;10.93;6.68;;;;;;;;;;4987790;28;20041;-56
2024/03/11 11:51:46;;;;;;;9.82;7.10;;;;;;;;;;4994068;28;20038;-54
2024/03/11 11:54:25;;;;;;;11.48;6.75;;;;;;;;;;4987053;28;20034;-55
2024/03/11 11:56:51;;;;;;;9.27;6.47;;;;;;;;;;4986708;28;20489;-55
2024/03/11 11:59:20;;;;;;;9.70;5.97;;;;;;;;;;4985845;28;20050;-55
2024/03/11 12:01:46;;;;;;;10.00;6.80;;;;;;;;;;4984003;28;20125;-55
2024/03/11 12:04:12;;;;;;;12.48;7.20;;;;;;;;;;4986599;28;20076;-54
2024/03/11 12:06:37;;;;;;;9.13;5.40;;;;;;;;;;4998830;28;20085;-65
2024/03/11 12:09:12;;;;;;;7.75;5.72;;;;;;;;;;4993503;28;20545;-54
2024/03/11 12:11:41;;;;;;;8.63;5.40;;;;;;;;;;4986239;28;20038;-55
2024/03/11 12:14:09;;;;;;;8.85;5.82;;;;;;;;;;4987868;28;20026;-54
2024/03/11 12:16:34;;;;;;;7.75;5.55;;;;;;;;;;4986409;28;20041;-55
2024/03/11 12:19:00;;;;;;;7.75;5.25;;;;;;;;;;4986895;28;20042;-55
2024/03/11 12:21:27;;;;;;;7.00;5.18;;;;;;;;;;4986485;28;20108;-55
2024/03/11 12:23:53;;;;;;;6.72;5.45;;;;;;;;;;4987724;28;20053;-55
2024/03/11 12:26:18;;;;;;;6.05;4.97;;;;;;;;;;4986272;28;20085;-55
2024/03/11 12:29:00;;;;;;;7.60;5.30;;;;;;;;;;4987383;28;20043;-55
2024/03/11 12:31:25;;;;;;;8.65;5.28;;;;;;;;;;4984942;28;20042;-55
2024/03/11 12:33:51;;;;;;;7.90;5.40;;;;;;;;;;4987036;28;20034;-55
2024/03/11 12:36:16;;;;;;;7.65;5.38;;;;;;;;;;4986293;28;20057;-54
2024/03/11 12:38:42;;;;;;;6.78;5.53;;;;;;;;;;4985956;28;20050;-55
2024/03/11 12:41:07;;;;;;;7.75;5.75;;;;;;;;;;5000122;28;20121;-54
2024/03/11 12:43:35;;;;;;;6.63;5.20;;;;;;;;;;4986674;28;20044;-54
2024/03/11 12:46:02;;;;;;;7.50;5.45;;;;;;;;;;4988733;28;20018;-54
2024/03/11 12:48:28;;;;;;;7.25;5.72;;;;;;;;;;4986658;28;20038;-55
2024/03/11 13:02:48;;;;;;;7.13;4.93;;;;;;;;;;5086286;27;20137;-55
2024/03/11 13:05:16;;;;;;;8.50;5.18;;;;;;;;;;5027736;28;20037;-71
2024/03/11 13:07:42;;;;;;;6.75;4.75;;;;;;;;;;5027637;28;20062;-58
2024/03/11 13:10:15;;;;;;;7.22;4.78;;;;;;;;;;5027612;28;20038;-56
2024/03/11 13:12:40;;;;;;;7.03;4.97;;;;;;;;;;5027565;28;20125;-58
2024/03/11 13:15:08;;;;;;;5.82;5.07;;;;;;;;;;5027034;28;20220;-54
2024/03/11 13:17:34;;;;;;;6.03;4.70;;;;;;;;;;5027740;28;20033;-57
2024/03/11 13:19:59;;;;;;;6.03;4.63;;;;;;;;;;5027892;28;20043;-53
2024/03/11 13:22:24;;;;;;;7.63;4.85;;;;;;;;;;5027158;28;20041;-56
2024/03/11 13:24:53;;;;;;;6.65;4.72;;;;;;;;;;5028402;28;20124;-56
2024/03/11 13:27:21;;;;;;;6.35;4.63;;;;;;;;;;5030457;28;20053;-54
2024/03/11 13:29:47;;;;;;;5.70;4.82;;;;;;;;;;5029339;28;20033;-64
2024/03/11 13:32:12;;;;;;;6.95;5.13;;;;;;;;;;5029169;28;20101;-70
2024/03/11 13:34:38;;;;;;;9.13;6.80;;;;;;;;;;5022977;28;20524;-54
2024/03/11 13:37:04;;;;;;;7.25;5.50;;;;;;;;;;5027927;28;20051;-62
2024/03/11 13:39:36;;;;;;;6.78;5.07;;;;;;;;;;5030236;28;20044;-54
2024/03/11 13:42:05;;;;;;;7.68;5.10;;;;;;;;;;5025907;28;20041;-56
2024/03/11 13:44:31;;;;;;;7.55;5.30;;;;;;;;;;5026687;28;20069;-54
2024/03/11 13:46:58;;;;;;;8.13;4.95;;;;;;;;;;5028322;28;20080;-57
2024/03/11 13:49:24;;;;;;;7.97;5.03;;;;;;;;;;5026838;28;20029;-54
2024/03/11 13:51:49;;;;;;;7.38;5.03;;;;;;;;;;5026432;28;20433;-56
2024/03/11 13:54:15;;;;;;;6.60;4.72;;;;;;;;;;5027051;28;20065;-71
2024/03/11 13:56:40;;;;;;;6.90;4.78;;;;;;;;;;5027738;28;20040;-61
2024/03/11 13:59:08;;;;;;;6.97;4.80;;;;;;;;;;5028322;28;20041;-65
2024/03/11 14:01:33;;;;;;;6.00;5.05;;;;;;;;;;5027863;28;20094;-64
2024/03/11 14:03:59;;;;;;;5.95;4.47;;;;;;;;;;5020683;28;20045;-77
2024/03/11 14:06:25;;;;;;;6.55;5.07;;;;;;;;;;5027617;28;20034;-60
2024/03/11 14:08:51;;;;;;;7.00;4.53;;;;;;;;;;5027492;28;20041;-77
2024/03/11 14:11:18;;;;;;;6.72;5.18;;;;;;;;;;5035790;28;20063;-66
2024/03/11 14:13:43;;;;;;;6.45;4.93;;;;;;;;;;5027415;28;20468;-55
2024/03/11 14:16:11;;;;;;;6.70;4.80;;;;;;;;;;5027063;28;20037;-55
2024/03/11 14:18:37;;;;;;;7.13;4.50;;;;;;;;;;5028421;28;20057;-55
2024/03/11 14:21:04;;;;;;;6.32;5.07;;;;;;;;;;5032074;28;20068;-55
2024/03/11 14:23:29;;;;;;;6.55;4.82;;;;;;;;;;5027635;28;20348;-63
2024/03/11 14:25:56;;;;;;;5.88;4.78;;;;;;;;;;5034821;28;20500;-58
2024/03/11 14:28:22;;;;;;;6.70;4.97;;;;;;;;;;5046834;28;20492;-55
2024/03/11 14:30:47;;;;;;;6.72;4.88;;;;;;;;;;5041509;28;20044;-55
2024/03/11 14:33:12;;;;;;;6.47;5.00;;;;;;;;;;5027219;28;20492;-55
2024/03/11 14:35:38;;;;;;;6.78;4.60;;;;;;;;;;5026726;28;20049;-55
2024/03/11 14:38:03;;;;;;;5.70;4.55;;;;;;;;;;5036388;28;20041;-55
2024/03/11 14:40:32;;;;;;;6.78;4.40;;;;;;;;;;5025734;28;20492;-57
2024/03/11 14:42:57;;;;;;;5.75;4.32;;;;;;;;;;5025784;28;20033;-61
2024/03/11 14:45:22;;;;;;;6.65;4.30;;;;;;;;;;5026545;28;20110;-59
2024/03/11 14:47:48;;;;;;;6.45;4.82;;;;;;;;;;5035789;28;20116;-57
2024/03/11 14:50:16;;;;;;;5.60;4.55;;;;;;;;;;5026567;28;20125;-56
2024/03/11 14:52:42;;;;;;;6.88;4.88;;;;;;;;;;5023888;28;20691;-59
2024/03/11 14:55:09;;;;;;;6.43;4.50;;;;;;;;;;5022760;28;20117;-64
2024/03/11 14:57:35;;;;;;;6.03;4.45;;;;;;;;;;5026666;28;20115;-63
2024/03/11 15:00:10;;;;;;;6.35;4.05;;;;;;;;;;5026629;28;20117;-62
2024/03/11 15:02:36;;;;;;;6.65;4.68;;;;;;;;;;5025293;28;20052;-55